sensor_id;sensor_type;location;lat;lon;timestamp;P1;durP1;ratioP1;P2;durP2;ratioP2
42682;SDS011;28293;50.930;3.464;2023-02-17T00:03:50;9.25;;;5.85;;
42682;SDS011;28293;50.930;3.464;2023-02-17T00:06:17;9.77;;;5.38;;
42682;SDS011;28293;50.930;3.464;2023-02-17T00:08:44;8.90;;;5.30;;
42682;SDS011;28293;50.930;3.464;2023-02-17T00:11:10;8.82;;;5.60;;
42682;SDS011;28293;50.930;3.464;2023-02-17T00:13:36;9.98;;;5.70;;
42682;SDS011;28293;50.930;3.464;2023-02-17T00:16:09;8.65;;;5.40;;
42682;SDS011;28293;50.930;3.464;2023-02-17T00:18:46;9.02;;;5.60;;
42682;SDS011;28293;50.930;3.464;2023-02-17T00:21:13;9.73;;;6.05;;
42682;SDS011;28293;50.930;3.464;2023-02-17T00:23:41;10.32;;;6.45;;
42682;SDS011;28293;50.930;3.464;2023-02-17T00:26:07;10.48;;;6.90;;
42682;SDS011;28293;50.930;3.464;2023-02-17T00:28:33;12.88;;;7.80;;
42682;SDS011;28293;50.930;3.464;2023-02-17T00:31:03;10.88;;;7.20;;
42682;SDS011;28293;50.930;3.464;2023-02-17T00:33:39;12.77;;;7.97;;
42682;SDS011;28293;50.930;3.464;2023-02-17T00:36:06;10.55;;;7.47;;
42682;SDS011;28293;50.930;3.464;2023-02-17T00:38:35;11.07;;;7.70;;
42682;SDS011;28293;50.930;3.464;2023-02-17T00:41:01;12.98;;;8.88;;
42682;SDS011;28293;50.930;3.464;2023-02-17T00:43:27;12.82;;;8.20;;
42682;SDS011;28293;50.930;3.464;2023-02-17T00:45:53;12.15;;;8.32;;
42682;SDS011;28293;50.930;3.464;2023-02-17T00:48:19;13.07;;;8.68;;
42682;SDS011;28293;50.930;3.464;2023-02-17T00:50:45;11.43;;;8.02;;
42682;SDS011;28293;50.930;3.464;2023-02-17T00:53:10;12.27;;;8.32;;
42682;SDS011;28293;50.930;3.464;2023-02-17T00:55:36;11.88;;;8.32;;
42682;SDS011;28293;50.930;3.464;2023-02-17T00:58:02;13.32;;;9.20;;
42682;SDS011;28293;50.930;3.464;2023-02-17T01:00:28;11.50;;;8.50;;
42682;SDS011;28293;50.930;3.464;2023-02-17T01:02:53;12.20;;;8.60;;
42682;SDS011;28293;50.930;3.464;2023-02-17T01:05:19;11.95;;;8.63;;
42682;SDS011;28293;50.930;3.464;2023-02-17T01:07:45;11.85;;;8.82;;
42682;SDS011;28293;50.930;3.464;2023-02-17T01:10:10;12.27;;;8.82;;
42682;SDS011;28293;50.930;3.464;2023-02-17T01:12:36;12.77;;;9.18;;
42682;SDS011;28293;50.930;3.464;2023-02-17T01:15:02;11.00;;;7.95;;
42682;SDS011;28293;50.930;3.464;2023-02-17T01:17:29;12.35;;;8.45;;
42682;SDS011;28293;50.930;3.464;2023-02-17T01:19:54;14.05;;;9.85;;
42682;SDS011;28293;50.930;3.464;2023-02-17T01:22:21;12.48;;;9.50;;
42682;SDS011;28293;50.930;3.464;2023-02-17T01:24:47;13.43;;;9.23;;
42682;SDS011;28293;50.930;3.464;2023-02-17T01:27:13;14.23;;;9.68;;
42682;SDS011;28293;50.930;3.464;2023-02-17T01:29:38;14.15;;;8.48;;
42682;SDS011;28293;50.930;3.464;2023-02-17T01:32:04;12.40;;;8.10;;
42682;SDS011;28293;50.930;3.464;2023-02-17T01:34:30;13.30;;;7.93;;
42682;SDS011;28293;50.930;3.464;2023-02-17T01:36:55;13.23;;;8.52;;
42682;SDS011;28293;50.930;3.464;2023-02-17T01:39:21;12.80;;;8.10;;
42682;SDS011;28293;50.930;3.464;2023-02-17T01:41:47;10.60;;;6.78;;
42682;SDS011;28293;50.930;3.464;2023-02-17T01:44:17;10.80;;;5.50;;
42682;SDS011;28293;50.930;3.464;2023-02-17T01:46:46;12.35;;;6.45;;
42682;SDS011;28293;50.930;3.464;2023-02-17T01:49:16;10.18;;;6.32;;
42682;SDS011;28293;50.930;3.464;2023-02-17T01:51:51;9.77;;;5.55;;
42682;SDS011;28293;50.930;3.464;2023-02-17T01:54:27;10.45;;;6.45;;
42682;SDS011;28293;50.930;3.464;2023-02-17T01:57:02;12.20;;;7.70;;
42682;SDS011;28293;50.930;3.464;2023-02-17T01:59:28;10.85;;;6.43;;
42682;SDS011;28293;50.930;3.464;2023-02-17T02:01:56;9.45;;;6.07;;
42682;SDS011;28293;50.930;3.464;2023-02-17T02:04:25;11.82;;;5.75;;
42682;SDS011;28293;50.930;3.464;2023-02-17T02:06:54;10.10;;;6.10;;
42682;SDS011;28293;50.930;3.464;2023-02-17T02:09:21;11.60;;;5.88;;
42682;SDS011;28293;50.930;3.464;2023-02-17T02:12:00;10.45;;;5.82;;
42682;SDS011;28293;50.930;3.464;2023-02-17T02:14:26;8.57;;;4.82;;
42682;SDS011;28293;50.930;3.464;2023-02-17T02:17:07;8.15;;;5.07;;
42682;SDS011;28293;50.930;3.464;2023-02-17T02:30:51;10.65;;;6.85;;
42682;SDS011;28293;50.930;3.464;2023-02-17T02:36:21;7.85;;;4.38;;
42682;SDS011;28293;50.930;3.464;2023-02-17T02:39:01;8.90;;;4.25;;
42682;SDS011;28293;50.930;3.464;2023-02-17T02:41:45;9.13;;;4.95;;
42682;SDS011;28293;50.930;3.464;2023-02-17T02:44:15;8.80;;;4.30;;
42682;SDS011;28293;50.930;3.464;2023-02-17T02:46:42;8.02;;;4.15;;
42682;SDS011;28293;50.930;3.464;2023-02-17T02:49:08;7.97;;;4.40;;
42682;SDS011;28293;50.930;3.464;2023-02-17T02:59:33;7.60;;;4.32;;
42682;SDS011;28293;50.930;3.464;2023-02-17T03:05:36;9.35;;;4.13;;
42682;SDS011;28293;50.930;3.464;2023-02-17T03:08:07;9.75;;;4.00;;
42682;SDS011;28293;50.930;3.464;2023-02-17T03:10:55;10.82;;;4.88;;
42682;SDS011;28293;50.930;3.464;2023-02-17T03:13:21;11.90;;;5.43;;
42682;SDS011;28293;50.930;3.464;2023-02-17T03:15:47;10.00;;;5.18;;
42682;SDS011;28293;50.930;3.464;2023-02-17T03:18:13;10.48;;;5.00;;
42682;SDS011;28293;50.930;3.464;2023-02-17T03:20:43;13.50;;;5.53;;
42682;SDS011;28293;50.930;3.464;2023-02-17T03:23:14;12.45;;;4.63;;
42682;SDS011;28293;50.930;3.464;2023-02-17T03:25:40;12.93;;;5.43;;
42682;SDS011;28293;50.930;3.464;2023-02-17T03:28:07;9.95;;;4.72;;
42682;SDS011;28293;50.930;3.464;2023-02-17T03:30:33;10.75;;;5.70;;
42682;SDS011;28293;50.930;3.464;2023-02-17T03:32:59;11.57;;;5.75;;
42682;SDS011;28293;50.930;3.464;2023-02-17T03:35:24;12.30;;;5.97;;
42682;SDS011;28293;50.930;3.464;2023-02-17T03:37:50;12.13;;;5.60;;
42682;SDS011;28293;50.930;3.464;2023-02-17T03:40:16;11.43;;;5.20;;
42682;SDS011;28293;50.930;3.464;2023-02-17T03:42:42;11.18;;;5.10;;
42682;SDS011;28293;50.930;3.464;2023-02-17T03:45:07;9.45;;;5.28;;
42682;SDS011;28293;50.930;3.464;2023-02-17T03:47:34;11.60;;;5.30;;
42682;SDS011;28293;50.930;3.464;2023-02-17T03:49:59;12.35;;;6.03;;
42682;SDS011;28293;50.930;3.464;2023-02-17T03:52:25;11.88;;;5.65;;
42682;SDS011;28293;50.930;3.464;2023-02-17T03:54:50;13.23;;;6.00;;
42682;SDS011;28293;50.930;3.464;2023-02-17T03:57:17;12.40;;;5.32;;
42682;SDS011;28293;50.930;3.464;2023-02-17T03:59:43;11.50;;;5.75;;
42682;SDS011;28293;50.930;3.464;2023-02-17T04:02:08;11.95;;;6.00;;
42682;SDS011;28293;50.930;3.464;2023-02-17T04:04:34;11.32;;;6.25;;
42682;SDS011;28293;50.930;3.464;2023-02-17T04:07:00;12.55;;;6.28;;
42682;SDS011;28293;50.930;3.464;2023-02-17T04:09:26;15.77;;;6.80;;
42682;SDS011;28293;50.930;3.464;2023-02-17T04:11:51;11.43;;;6.72;;
42682;SDS011;28293;50.930;3.464;2023-02-17T04:14:17;12.45;;;6.13;;
42682;SDS011;28293;50.930;3.464;2023-02-17T04:16:43;16.15;;;6.60;;
42682;SDS011;28293;50.930;3.464;2023-02-17T04:19:08;12.25;;;5.85;;
42682;SDS011;28293;50.930;3.464;2023-02-17T04:21:34;13.25;;;5.60;;
42682;SDS011;28293;50.930;3.464;2023-02-17T04:24:01;12.75;;;6.10;;
42682;SDS011;28293;50.930;3.464;2023-02-17T04:26:27;8.73;;;4.97;;
42682;SDS011;28293;50.930;3.464;2023-02-17T04:28:53;10.65;;;5.70;;
42682;SDS011;28293;50.930;3.464;2023-02-17T04:31:19;11.27;;;6.25;;
42682;SDS011;28293;50.930;3.464;2023-02-17T04:33:45;11.20;;;5.85;;
42682;SDS011;28293;50.930;3.464;2023-02-17T04:36:10;13.98;;;6.72;;
42682;SDS011;28293;50.930;3.464;2023-02-17T04:38:36;13.85;;;6.97;;
42682;SDS011;28293;50.930;3.464;2023-02-17T04:41:02;13.60;;;7.18;;
42682;SDS011;28293;50.930;3.464;2023-02-17T04:43:30;14.52;;;7.10;;
42682;SDS011;28293;50.930;3.464;2023-02-17T04:45:55;12.85;;;7.15;;
42682;SDS011;28293;50.930;3.464;2023-02-17T04:48:21;16.85;;;7.63;;
42682;SDS011;28293;50.930;3.464;2023-02-17T04:50:48;12.35;;;7.05;;
42682;SDS011;28293;50.930;3.464;2023-02-17T04:53:13;13.48;;;7.68;;
42682;SDS011;28293;50.930;3.464;2023-02-17T04:55:39;14.27;;;7.78;;
42682;SDS011;28293;50.930;3.464;2023-02-17T04:58:05;14.35;;;7.70;;
42682;SDS011;28293;50.930;3.464;2023-02-17T05:00:31;15.20;;;7.50;;
42682;SDS011;28293;50.930;3.464;2023-02-17T05:02:57;13.43;;;7.55;;
42682;SDS011;28293;50.930;3.464;2023-02-17T05:05:23;14.02;;;8.00;;
42682;SDS011;28293;50.930;3.464;2023-02-17T05:07:48;13.40;;;7.88;;
42682;SDS011;28293;50.930;3.464;2023-02-17T05:10:15;14.20;;;7.45;;
42682;SDS011;28293;50.930;3.464;2023-02-17T05:12:41;15.73;;;7.38;;
42682;SDS011;28293;50.930;3.464;2023-02-17T05:15:07;14.98;;;8.05;;
42682;SDS011;28293;50.930;3.464;2023-02-17T05:17:33;13.57;;;7.25;;
42682;SDS011;28293;50.930;3.464;2023-02-17T05:19:59;15.30;;;7.55;;
42682;SDS011;28293;50.930;3.464;2023-02-17T05:22:25;13.48;;;8.32;;
42682;SDS011;28293;50.930;3.464;2023-02-17T05:24:51;14.60;;;8.27;;
42682;SDS011;28293;50.930;3.464;2023-02-17T05:27:17;16.48;;;7.78;;
42682;SDS011;28293;50.930;3.464;2023-02-17T05:29:44;11.82;;;7.15;;
42682;SDS011;28293;50.930;3.464;2023-02-17T05:32:09;15.82;;;8.10;;
42682;SDS011;28293;50.930;3.464;2023-02-17T05:34:35;12.43;;;7.70;;
42682;SDS011;28293;50.930;3.464;2023-02-17T05:37:01;12.77;;;8.00;;
42682;SDS011;28293;50.930;3.464;2023-02-17T05:39:26;14.02;;;7.72;;
42682;SDS011;28293;50.930;3.464;2023-02-17T05:41:53;14.32;;;7.82;;
42682;SDS011;28293;50.930;3.464;2023-02-17T05:44:19;14.05;;;8.30;;
42682;SDS011;28293;50.930;3.464;2023-02-17T05:46:45;13.95;;;8.57;;
42682;SDS011;28293;50.930;3.464;2023-02-17T05:49:10;14.73;;;8.25;;
42682;SDS011;28293;50.930;3.464;2023-02-17T05:51:36;13.45;;;8.30;;
42682;SDS011;28293;50.930;3.464;2023-02-17T05:54:02;13.50;;;8.73;;
42682;SDS011;28293;50.930;3.464;2023-02-17T05:56:28;13.70;;;8.60;;
42682;SDS011;28293;50.930;3.464;2023-02-17T05:58:53;14.15;;;9.05;;
42682;SDS011;28293;50.930;3.464;2023-02-17T06:01:19;12.02;;;7.93;;
42682;SDS011;28293;50.930;3.464;2023-02-17T06:03:45;14.57;;;8.90;;
42682;SDS011;28293;50.930;3.464;2023-02-17T06:06:10;12.35;;;8.00;;
42682;SDS011;28293;50.930;3.464;2023-02-17T06:08:36;11.82;;;7.28;;
42682;SDS011;28293;50.930;3.464;2023-02-17T06:11:02;13.30;;;8.27;;
42682;SDS011;28293;50.930;3.464;2023-02-17T06:13:28;13.32;;;8.05;;
42682;SDS011;28293;50.930;3.464;2023-02-17T06:15:54;13.23;;;8.38;;
42682;SDS011;28293;50.930;3.464;2023-02-17T06:18:19;12.40;;;8.45;;
42682;SDS011;28293;50.930;3.464;2023-02-17T06:20:45;16.95;;;10.68;;
42682;SDS011;28293;50.930;3.464;2023-02-17T06:23:11;12.13;;;8.25;;
42682;SDS011;28293;50.930;3.464;2023-02-17T06:25:37;12.35;;;9.00;;
42682;SDS011;28293;50.930;3.464;2023-02-17T06:28:02;13.48;;;8.50;;
42682;SDS011;28293;50.930;3.464;2023-02-17T06:30:29;12.95;;;9.15;;
42682;SDS011;28293;50.930;3.464;2023-02-17T06:32:55;12.40;;;9.02;;
42682;SDS011;28293;50.930;3.464;2023-02-17T06:35:22;12.27;;;8.43;;
42682;SDS011;28293;50.930;3.464;2023-02-17T06:37:47;15.23;;;8.55;;
42682;SDS011;28293;50.930;3.464;2023-02-17T06:40:13;12.80;;;8.88;;
42682;SDS011;28293;50.930;3.464;2023-02-17T06:42:40;11.60;;;8.18;;
42682;SDS011;28293;50.930;3.464;2023-02-17T06:45:05;11.98;;;8.77;;
42682;SDS011;28293;50.930;3.464;2023-02-17T06:47:32;12.90;;;8.95;;
42682;SDS011;28293;50.930;3.464;2023-02-17T06:49:58;13.00;;;8.50;;
42682;SDS011;28293;50.930;3.464;2023-02-17T06:52:24;12.63;;;9.25;;
42682;SDS011;28293;50.930;3.464;2023-02-17T06:54:50;12.70;;;9.20;;
42682;SDS011;28293;50.930;3.464;2023-02-17T06:57:15;12.48;;;9.52;;
42682;SDS011;28293;50.930;3.464;2023-02-17T06:59:41;12.93;;;8.57;;
42682;SDS011;28293;50.930;3.464;2023-02-17T07:02:11;11.50;;;8.73;;
42682;SDS011;28293;50.930;3.464;2023-02-17T07:04:38;11.93;;;7.57;;
42682;SDS011;28293;50.930;3.464;2023-02-17T07:07:04;10.13;;;7.38;;
42682;SDS011;28293;50.930;3.464;2023-02-17T07:09:30;9.90;;;7.32;;
42682;SDS011;28293;50.930;3.464;2023-02-17T07:11:56;9.30;;;6.30;;
42682;SDS011;28293;50.930;3.464;2023-02-17T07:14:22;9.02;;;5.75;;
42682;SDS011;28293;50.930;3.464;2023-02-17T07:16:49;10.48;;;5.65;;
42682;SDS011;28293;50.930;3.464;2023-02-17T07:19:14;9.45;;;5.35;;
42682;SDS011;28293;50.930;3.464;2023-02-17T07:21:40;9.90;;;5.00;;
42682;SDS011;28293;50.930;3.464;2023-02-17T07:24:06;7.78;;;5.35;;
42682;SDS011;28293;50.930;3.464;2023-02-17T07:26:36;7.90;;;4.90;;
42682;SDS011;28293;50.930;3.464;2023-02-17T07:29:03;8.15;;;5.10;;
42682;SDS011;28293;50.930;3.464;2023-02-17T07:31:29;8.05;;;4.57;;
42682;SDS011;28293;50.930;3.464;2023-02-17T07:33:55;6.38;;;3.97;;
42682;SDS011;28293;50.930;3.464;2023-02-17T07:36:21;6.32;;;3.78;;
42682;SDS011;28293;50.930;3.464;2023-02-17T07:38:47;5.60;;;3.50;;
42682;SDS011;28293;50.930;3.464;2023-02-17T07:41:14;7.18;;;3.88;;
42682;SDS011;28293;50.930;3.464;2023-02-17T07:43:42;6.20;;;3.92;;
42682;SDS011;28293;50.930;3.464;2023-02-17T07:46:09;6.53;;;3.45;;
42682;SDS011;28293;50.930;3.464;2023-02-17T07:48:36;5.90;;;3.75;;
42682;SDS011;28293;50.930;3.464;2023-02-17T07:51:09;5.45;;;3.03;;
42682;SDS011;28293;50.930;3.464;2023-02-17T07:53:36;8.20;;;3.78;;
42682;SDS011;28293;50.930;3.464;2023-02-17T07:56:03;6.28;;;3.22;;
42682;SDS011;28293;50.930;3.464;2023-02-17T07:58:31;7.88;;;3.30;;
42682;SDS011;28293;50.930;3.464;2023-02-17T08:01:07;6.05;;;3.55;;
42682;SDS011;28293;50.930;3.464;2023-02-17T08:03:38;7.00;;;3.63;;
42682;SDS011;28293;50.930;3.464;2023-02-17T08:06:07;7.18;;;3.45;;
42682;SDS011;28293;50.930;3.464;2023-02-17T08:08:43;6.95;;;3.55;;
42682;SDS011;28293;50.930;3.464;2023-02-17T08:11:28;9.07;;;4.10;;
42682;SDS011;28293;50.930;3.464;2023-02-17T08:14:13;6.70;;;3.95;;
42682;SDS011;28293;50.930;3.464;2023-02-17T08:16:38;6.50;;;3.55;;
42682;SDS011;28293;50.930;3.464;2023-02-17T08:19:04;7.32;;;3.78;;
42682;SDS011;28293;50.930;3.464;2023-02-17T08:21:30;5.68;;;3.33;;
42682;SDS011;28293;50.930;3.464;2023-02-17T08:23:56;5.53;;;2.80;;
42682;SDS011;28293;50.930;3.464;2023-02-17T08:26:22;5.68;;;2.75;;
42682;SDS011;28293;50.930;3.464;2023-02-17T08:28:48;6.40;;;3.50;;
42682;SDS011;28293;50.930;3.464;2023-02-17T08:31:15;5.88;;;3.63;;
42682;SDS011;28293;50.930;3.464;2023-02-17T08:33:45;5.82;;;3.17;;
42682;SDS011;28293;50.930;3.464;2023-02-17T08:36:11;6.50;;;3.70;;
42682;SDS011;28293;50.930;3.464;2023-02-17T08:38:37;7.68;;;3.65;;
42682;SDS011;28293;50.930;3.464;2023-02-17T08:41:18;6.40;;;3.30;;
42682;SDS011;28293;50.930;3.464;2023-02-17T08:43:46;5.05;;;2.92;;
42682;SDS011;28293;50.930;3.464;2023-02-17T08:46:13;7.05;;;3.30;;
42682;SDS011;28293;50.930;3.464;2023-02-17T08:48:39;7.47;;;3.17;;
42682;SDS011;28293;50.930;3.464;2023-02-17T08:51:05;6.13;;;3.60;;
42682;SDS011;28293;50.930;3.464;2023-02-17T08:53:31;7.30;;;4.10;;
42682;SDS011;28293;50.930;3.464;2023-02-17T08:55:57;8.43;;;4.57;;
42682;SDS011;28293;50.930;3.464;2023-02-17T08:58:23;9.38;;;5.60;;
42682;SDS011;28293;50.930;3.464;2023-02-17T09:00:48;8.60;;;4.82;;
42682;SDS011;28293;50.930;3.464;2023-02-17T09:03:14;7.15;;;4.70;;
42682;SDS011;28293;50.930;3.464;2023-02-17T09:05:40;9.05;;;4.82;;
42682;SDS011;28293;50.930;3.464;2023-02-17T09:08:05;7.38;;;4.70;;
42682;SDS011;28293;50.930;3.464;2023-02-17T09:10:31;6.35;;;3.20;;
42682;SDS011;28293;50.930;3.464;2023-02-17T09:12:57;5.80;;;3.20;;
42682;SDS011;28293;50.930;3.464;2023-02-17T09:15:23;8.63;;;4.60;;
42682;SDS011;28293;50.930;3.464;2023-02-17T09:17:48;6.78;;;3.63;;
42682;SDS011;28293;50.930;3.464;2023-02-17T09:20:14;8.75;;;4.47;;
42682;SDS011;28293;50.930;3.464;2023-02-17T09:22:43;9.30;;;5.63;;
42682;SDS011;28293;50.930;3.464;2023-02-17T09:25:09;8.82;;;5.85;;
42682;SDS011;28293;50.930;3.464;2023-02-17T09:27:35;10.10;;;6.05;;
42682;SDS011;28293;50.930;3.464;2023-02-17T09:30:00;8.60;;;5.35;;
42682;SDS011;28293;50.930;3.464;2023-02-17T09:32:26;8.13;;;5.63;;
42682;SDS011;28293;50.930;3.464;2023-02-17T09:34:52;8.13;;;5.00;;
42682;SDS011;28293;50.930;3.464;2023-02-17T09:37:19;6.80;;;4.50;;
42682;SDS011;28293;50.930;3.464;2023-02-17T09:39:45;8.35;;;4.78;;
42682;SDS011;28293;50.930;3.464;2023-02-17T09:42:17;9.05;;;5.38;;
42682;SDS011;28293;50.930;3.464;2023-02-17T09:45:04;7.47;;;4.65;;
42682;SDS011;28293;50.930;3.464;2023-02-17T09:47:36;7.00;;;3.05;;
42682;SDS011;28293;50.930;3.464;2023-02-17T09:50:13;8.48;;;3.53;;
42682;SDS011;28293;50.930;3.464;2023-02-17T09:53:00;6.60;;;3.58;;
42682;SDS011;28293;50.930;3.464;2023-02-17T09:55:38;6.15;;;3.50;;
42682;SDS011;28293;50.930;3.464;2023-02-17T09:58:10;7.05;;;4.13;;
42682;SDS011;28293;50.930;3.464;2023-02-17T10:00:38;7.53;;;4.60;;
42682;SDS011;28293;50.930;3.464;2023-02-17T10:03:19;7.57;;;3.47;;
42682;SDS011;28293;50.930;3.464;2023-02-17T10:08:29;7.15;;;2.55;;
42682;SDS011;28293;50.930;3.464;2023-02-17T10:11:00;5.32;;;2.22;;
42682;SDS011;28293;50.930;3.464;2023-02-17T10:13:34;6.70;;;2.80;;
42682;SDS011;28293;50.930;3.464;2023-02-17T10:16:04;5.65;;;2.28;;
42682;SDS011;28293;50.930;3.464;2023-02-17T10:19:35;5.18;;;2.38;;
42682;SDS011;28293;50.930;3.464;2023-02-17T10:21:36;5.53;;;3.22;;
42682;SDS011;28293;50.930;3.464;2023-02-17T10:24:06;7.90;;;3.90;;
42682;SDS011;28293;50.930;3.464;2023-02-17T10:26:51;6.38;;;3.15;;
42682;SDS011;28293;50.930;3.464;2023-02-17T10:32:21;5.50;;;2.50;;
42682;SDS011;28293;50.930;3.464;2023-02-17T10:40:07;8.90;;;1.95;;
42682;SDS011;28293;50.930;3.464;2023-02-17T10:42:40;5.63;;;2.10;;
42682;SDS011;28293;50.930;3.464;2023-02-17T10:45:16;6.80;;;2.10;;
42682;SDS011;28293;50.930;3.464;2023-02-17T10:48:05;5.13;;;2.00;;
42682;SDS011;28293;50.930;3.464;2023-02-17T10:50:36;4.72;;;1.80;;
42682;SDS011;28293;50.930;3.464;2023-02-17T10:53:18;4.78;;;2.22;;
42682;SDS011;28293;50.930;3.464;2023-02-17T10:58:16;3.33;;;1.50;;
42682;SDS011;28293;50.930;3.464;2023-02-17T11:03:21;4.15;;;1.63;;
42682;SDS011;28293;50.930;3.464;2023-02-17T11:05:56;4.95;;;1.80;;
42682;SDS011;28293;50.930;3.464;2023-02-17T11:11:13;6.15;;;2.13;;
42682;SDS011;28293;50.930;3.464;2023-02-17T11:13:43;2.97;;;1.60;;
42682;SDS011;28293;50.930;3.464;2023-02-17T11:16:26;5.15;;;1.63;;
42682;SDS011;28293;50.930;3.464;2023-02-17T11:21:23;6.20;;;1.63;;
42682;SDS011;28293;50.930;3.464;2023-02-17T11:24:03;4.30;;;1.80;;
42682;SDS011;28293;50.930;3.464;2023-02-17T11:26:31;3.20;;;1.50;;
42682;SDS011;28293;50.930;3.464;2023-02-17T11:31:51;2.35;;;1.50;;
42682;SDS011;28293;50.930;3.464;2023-02-17T11:34:27;3.35;;;1.63;;
42682;SDS011;28293;50.930;3.464;2023-02-17T11:39:48;4.88;;;1.77;;
42682;SDS011;28293;50.930;3.464;2023-02-17T11:44:47;2.47;;;1.40;;
42682;SDS011;28293;50.930;3.464;2023-02-17T11:56:22;5.80;;;1.60;;
42682;SDS011;28293;50.930;3.464;2023-02-17T12:04:30;3.65;;;1.38;;
42682;SDS011;28293;50.930;3.464;2023-02-17T12:10:01;3.30;;;1.42;;
42682;SDS011;28293;50.930;3.464;2023-02-17T12:17:44;3.17;;;1.20;;
42682;SDS011;28293;50.930;3.464;2023-02-17T12:34:16;2.65;;;1.05;;
42682;SDS011;28293;50.930;3.464;2023-02-17T12:37:04;3.38;;;1.20;;
42682;SDS011;28293;50.930;3.464;2023-02-17T12:42:08;3.08;;;1.30;;
42682;SDS011;28293;50.930;3.464;2023-02-17T12:44:43;2.72;;;1.20;;
42682;SDS011;28293;50.930;3.464;2023-02-17T12:47:20;2.90;;;1.33;;
42682;SDS011;28293;50.930;3.464;2023-02-17T12:49:59;5.45;;;1.55;;
42682;SDS011;28293;50.930;3.464;2023-02-17T12:52:36;2.97;;;1.23;;
42682;SDS011;28293;50.930;3.464;2023-02-17T12:57:41;2.20;;;1.15;;
42682;SDS011;28293;50.930;3.464;2023-02-17T13:00:34;4.40;;;1.63;;
42682;SDS011;28293;50.930;3.464;2023-02-17T13:03:03;3.55;;;1.48;;
42682;SDS011;28293;50.930;3.464;2023-02-17T13:08:17;3.13;;;1.38;;
42682;SDS011;28293;50.930;3.464;2023-02-17T13:10:57;3.38;;;1.42;;
42682;SDS011;28293;50.930;3.464;2023-02-17T13:13:28;3.00;;;1.45;;
42682;SDS011;28293;50.930;3.464;2023-02-17T13:16:11;2.85;;;1.30;;
42682;SDS011;28293;50.930;3.464;2023-02-17T13:18:39;4.55;;;1.20;;
42682;SDS011;28293;50.930;3.464;2023-02-17T13:24:05;3.45;;;1.42;;
42682;SDS011;28293;50.930;3.464;2023-02-17T13:26:38;3.78;;;1.35;;
42682;SDS011;28293;50.930;3.464;2023-02-17T13:29:07;3.72;;;1.50;;
42682;SDS011;28293;50.930;3.464;2023-02-17T13:34:26;6.10;;;1.50;;
42682;SDS011;28293;50.930;3.464;2023-02-17T13:36:52;4.30;;;1.90;;
42682;SDS011;28293;50.930;3.464;2023-02-17T13:41:57;3.60;;;1.40;;
42682;SDS011;28293;50.930;3.464;2023-02-17T13:47:43;4.20;;;1.63;;
42682;SDS011;28293;50.930;3.464;2023-02-17T13:50:02;1.75;;;1.30;;
42682;SDS011;28293;50.930;3.464;2023-02-17T13:52:29;3.08;;;1.23;;
42682;SDS011;28293;50.930;3.464;2023-02-17T13:54:56;6.28;;;2.00;;
42682;SDS011;28293;50.930;3.464;2023-02-17T14:02:45;3.60;;;1.60;;
42682;SDS011;28293;50.930;3.464;2023-02-17T14:05:19;5.22;;;1.90;;
42682;SDS011;28293;50.930;3.464;2023-02-17T14:07:50;4.55;;;2.00;;
42682;SDS011;28293;50.930;3.464;2023-02-17T14:10:21;5.15;;;2.22;;
42682;SDS011;28293;50.930;3.464;2023-02-17T14:12:49;5.68;;;1.77;;
42682;SDS011;28293;50.930;3.464;2023-02-17T14:15:24;5.10;;;2.65;;
42682;SDS011;28293;50.930;3.464;2023-02-17T14:17:52;3.65;;;2.40;;
42682;SDS011;28293;50.930;3.464;2023-02-17T14:20:25;5.47;;;2.03;;
42682;SDS011;28293;50.930;3.464;2023-02-17T14:23:00;7.22;;;2.40;;
42682;SDS011;28293;50.930;3.464;2023-02-17T14:25:42;5.38;;;1.90;;
42682;SDS011;28293;50.930;3.464;2023-02-17T14:28:22;5.57;;;1.98;;
42682;SDS011;28293;50.930;3.464;2023-02-17T14:30:50;5.18;;;1.85;;
42682;SDS011;28293;50.930;3.464;2023-02-17T14:33:18;4.75;;;1.83;;
42682;SDS011;28293;50.930;3.464;2023-02-17T14:36:23;6.13;;;2.00;;
42682;SDS011;28293;50.930;3.464;2023-02-17T14:38:39;4.57;;;1.90;;
42682;SDS011;28293;50.930;3.464;2023-02-17T14:41:06;4.00;;;2.10;;
42682;SDS011;28293;50.930;3.464;2023-02-17T14:43:38;5.18;;;2.72;;
42682;SDS011;28293;50.930;3.464;2023-02-17T14:46:04;4.85;;;1.60;;
42682;SDS011;28293;50.930;3.464;2023-02-17T14:48:29;6.05;;;2.05;;
42682;SDS011;28293;50.930;3.464;2023-02-17T14:50:55;6.88;;;2.50;;
42682;SDS011;28293;50.930;3.464;2023-02-17T14:56:12;6.88;;;2.97;;
42682;SDS011;28293;50.930;3.464;2023-02-17T14:58:50;7.25;;;4.05;;
42682;SDS011;28293;50.930;3.464;2023-02-17T15:01:20;8.13;;;6.03;;
42682;SDS011;28293;50.930;3.464;2023-02-17T15:03:47;8.68;;;3.28;;
42682;SDS011;28293;50.930;3.464;2023-02-17T15:06:21;8.65;;;3.90;;
42682;SDS011;28293;50.930;3.464;2023-02-17T15:08:49;7.40;;;3.55;;
42682;SDS011;28293;50.930;3.464;2023-02-17T15:11:22;11.55;;;4.85;;
42682;SDS011;28293;50.930;3.464;2023-02-17T15:13:55;6.60;;;3.83;;
42682;SDS011;28293;50.930;3.464;2023-02-17T15:16:20;11.07;;;4.38;;
42682;SDS011;28293;50.930;3.464;2023-02-17T15:18:46;8.57;;;3.30;;
42682;SDS011;28293;50.930;3.464;2023-02-17T15:21:20;5.97;;;3.15;;
42682;SDS011;28293;50.930;3.464;2023-02-17T15:26:24;9.43;;;5.72;;
42682;SDS011;28293;50.930;3.464;2023-02-17T15:28:52;9.75;;;5.85;;
42682;SDS011;28293;50.930;3.464;2023-02-17T15:31:21;10.43;;;4.95;;
42682;SDS011;28293;50.930;3.464;2023-02-17T15:33:53;11.30;;;5.68;;
42682;SDS011;28293;50.930;3.464;2023-02-17T15:36:21;10.35;;;6.93;;
42682;SDS011;28293;50.930;3.464;2023-02-17T15:38:47;10.30;;;6.72;;
42682;SDS011;28293;50.930;3.464;2023-02-17T15:41:15;11.65;;;6.60;;
42682;SDS011;28293;50.930;3.464;2023-02-17T15:43:48;10.77;;;5.40;;
42682;SDS011;28293;50.930;3.464;2023-02-17T15:46:16;12.88;;;5.78;;
42682;SDS011;28293;50.930;3.464;2023-02-17T15:48:44;11.75;;;6.22;;
42682;SDS011;28293;50.930;3.464;2023-02-17T15:51:16;10.48;;;5.50;;
42682;SDS011;28293;50.930;3.464;2023-02-17T15:53:43;13.65;;;4.63;;
42682;SDS011;28293;50.930;3.464;2023-02-17T15:56:10;10.15;;;4.50;;
42682;SDS011;28293;50.930;3.464;2023-02-17T15:58:47;12.18;;;5.65;;
42682;SDS011;28293;50.930;3.464;2023-02-17T16:01:20;11.10;;;4.95;;
42682;SDS011;28293;50.930;3.464;2023-02-17T16:03:56;11.93;;;5.18;;
42682;SDS011;28293;50.930;3.464;2023-02-17T16:06:23;12.20;;;4.85;;
42682;SDS011;28293;50.930;3.464;2023-02-17T16:08:49;10.52;;;4.90;;
42682;SDS011;28293;50.930;3.464;2023-02-17T16:11:15;11.90;;;5.53;;
42682;SDS011;28293;50.930;3.464;2023-02-17T16:13:42;11.52;;;4.32;;
42682;SDS011;28293;50.930;3.464;2023-02-17T16:16:19;10.90;;;4.53;;
42682;SDS011;28293;50.930;3.464;2023-02-17T16:18:47;10.15;;;3.60;;
42682;SDS011;28293;50.930;3.464;2023-02-17T16:21:14;11.45;;;4.85;;
42682;SDS011;28293;50.930;3.464;2023-02-17T16:23:40;11.25;;;4.95;;
42682;SDS011;28293;50.930;3.464;2023-02-17T16:26:12;12.73;;;4.82;;
42682;SDS011;28293;50.930;3.464;2023-02-17T16:28:45;10.07;;;4.78;;
42682;SDS011;28293;50.930;3.464;2023-02-17T16:31:11;12.00;;;5.50;;
42682;SDS011;28293;50.930;3.464;2023-02-17T16:33:36;11.25;;;5.30;;
42682;SDS011;28293;50.930;3.464;2023-02-17T16:36:02;9.73;;;5.78;;
42682;SDS011;28293;50.930;3.464;2023-02-17T16:38:34;9.73;;;5.50;;
42682;SDS011;28293;50.930;3.464;2023-02-17T16:41:00;12.52;;;6.28;;
42682;SDS011;28293;50.930;3.464;2023-02-17T16:43:25;11.25;;;6.40;;
42682;SDS011;28293;50.930;3.464;2023-02-17T16:45:55;12.30;;;6.57;;
42682;SDS011;28293;50.930;3.464;2023-02-17T16:48:25;15.35;;;9.02;;
42682;SDS011;28293;50.930;3.464;2023-02-17T16:50:52;12.20;;;8.32;;
42682;SDS011;28293;50.930;3.464;2023-02-17T16:53:18;14.57;;;8.57;;
42682;SDS011;28293;50.930;3.464;2023-02-17T16:55:44;13.32;;;8.52;;